createdAt,value
2022-10-06T00:02:08.870Z,14.41
2022-10-06T00:04:38.662Z,14.38
2022-10-06T00:07:08.404Z,14.35
2022-10-06T00:09:38.081Z,14.31
2022-10-06T00:12:09.150Z,14.29
2022-10-06T00:14:41.484Z,14.26
2022-10-06T00:17:11.222Z,14.24
2022-10-06T00:19:40.918Z,14.22
2022-10-06T00:22:10.670Z,14.20
2022-10-06T00:24:40.389Z,14.19
2022-10-06T00:27:10.114Z,14.16
2022-10-06T00:29:42.548Z,14.16
2022-10-06T00:32:12.749Z,14.13
2022-10-06T00:34:44.217Z,14.12
2022-10-06T00:37:13.978Z,14.11
2022-10-06T00:39:43.970Z,14.11
2022-10-06T00:42:24.861Z,14.09
2022-10-06T00:44:57.822Z,14.06
2022-10-06T00:47:29.916Z,14.05
2022-10-06T00:50:00.125Z,14.04
2022-10-06T00:52:33.353Z,14.03
2022-10-06T00:55:04.313Z,14.01
2022-10-06T00:57:34.092Z,13.99
2022-10-06T01:00:07.825Z,13.96
2022-10-06T01:02:42.838Z,13.95
2022-10-06T01:05:18.778Z,13.96
2022-10-06T01:07:48.498Z,13.95
2022-10-06T01:10:18.260Z,13.93
2022-10-06T01:12:48.271Z,13.94
2022-10-06T01:15:21.642Z,13.94
2022-10-06T01:17:55.941Z,13.93
2022-10-06T01:20:26.343Z,13.94
2022-10-06T01:23:05.246Z,13.94
2022-10-06T01:25:37.262Z,13.91
2022-10-06T01:28:09.452Z,13.89
2022-10-06T01:30:44.411Z,13.89
2022-10-06T01:33:14.591Z,13.85
2022-10-06T01:35:44.442Z,13.87
2022-10-06T01:38:17.119Z,13.85
2022-10-06T01:40:47.191Z,13.84
2022-10-06T01:43:17.335Z,13.82
2022-10-06T01:45:47.674Z,13.80
2022-10-06T01:48:17.379Z,13.80
2022-10-06T01:50:47.104Z,13.79
2022-10-06T01:53:19.631Z,13.78
2022-10-06T01:55:49.396Z,13.78
2022-10-06T01:58:19.416Z,13.76
2022-10-06T02:00:50.994Z,13.75
2022-10-06T02:03:20.844Z,13.73
2022-10-06T02:05:50.664Z,13.73
2022-10-06T02:08:22.970Z,13.72
2022-10-06T02:10:52.661Z,13.70
2022-10-06T02:13:23.581Z,13.68
2022-10-06T02:15:53.678Z,13.68
2022-10-06T02:18:23.433Z,13.63
2022-10-06T02:20:53.231Z,13.63
2022-10-06T02:23:25.572Z,13.60
2022-10-06T02:26:01.327Z,13.59
2022-10-06T02:28:31.800Z,13.58
2022-10-06T02:31:04.188Z,13.58
2022-10-06T02:33:34.502Z,13.57
2022-10-06T02:36:04.694Z,13.57
2022-10-06T02:38:37.262Z,13.57
2022-10-06T02:41:07.423Z,13.54
2022-10-06T02:43:37.907Z,13.51
2022-10-06T02:46:10.556Z,13.48
2022-10-06T02:48:40.830Z,13.45
2022-10-06T02:51:13.729Z,13.41
2022-10-06T02:53:46.911Z,13.39
2022-10-06T02:56:19.064Z,13.37
2022-10-06T02:58:50.180Z,13.36
2022-10-06T03:01:22.478Z,13.34
2022-10-06T03:03:52.260Z,13.31
2022-10-06T03:06:26.597Z,13.31
2022-10-06T03:09:01.130Z,13.30
2022-10-06T03:11:32.764Z,13.26
2022-10-06T03:14:02.752Z,13.24
2022-10-06T03:16:34.729Z,13.24
2022-10-06T03:19:05.260Z,13.22
2022-10-06T03:21:38.400Z,13.20
2022-10-06T03:24:11.006Z,13.19
2022-10-06T03:26:43.006Z,13.19
2022-10-06T03:29:13.608Z,13.18
2022-10-06T03:31:43.678Z,13.18
2022-10-06T03:34:13.650Z,13.16
2022-10-06T03:36:44.242Z,13.15
2022-10-06T03:39:16.577Z,13.14
2022-10-06T03:41:46.434Z,13.13
2022-10-06T03:44:16.460Z,13.10
2022-10-06T03:46:46.327Z,13.09
2022-10-06T03:49:16.095Z,13.08
2022-10-06T03:51:46.423Z,13.05
2022-10-06T03:54:18.744Z,13.04
2022-10-06T03:56:49.306Z,13.02
2022-10-06T03:59:19.714Z,12.96
2022-10-06T04:01:50.864Z,12.94
2022-10-06T04:04:20.600Z,12.94
2022-10-06T04:06:50.359Z,12.94
2022-10-06T04:09:22.708Z,12.95
2022-10-06T04:11:52.694Z,12.97
2022-10-06T04:14:22.449Z,12.99
2022-10-06T04:16:53.537Z,12.99
2022-10-06T04:19:23.257Z,12.99
2022-10-06T04:21:52.980Z,13.01
2022-10-06T04:24:25.548Z,12.97
2022-10-06T04:27:15.390Z,12.95
2022-10-06T04:29:45.683Z,12.95
2022-10-06T04:32:16.012Z,12.93
2022-10-06T04:34:45.738Z,12.95
2022-10-06T04:37:15.516Z,12.95
2022-10-06T04:39:48.181Z,12.97
2022-10-06T04:42:17.941Z,12.97
2022-10-06T04:44:47.651Z,12.98
2022-10-06T04:47:17.410Z,12.95
2022-10-06T04:49:47.123Z,12.94
2022-10-06T04:52:16.879Z,12.95
2022-10-06T04:54:49.237Z,12.93
2022-10-06T04:57:18.969Z,12.94
2022-10-06T05:00:06.793Z,12.97
2022-10-06T05:02:39.186Z,12.99
2022-10-06T05:05:09.941Z,12.99
2022-10-06T05:07:39.704Z,12.97
2022-10-06T05:10:12.346Z,12.96
2022-10-06T05:12:42.113Z,12.95
2022-10-06T05:15:13.077Z,12.95
2022-10-06T05:17:42.816Z,12.95
2022-10-06T05:20:13.853Z,12.93
2022-10-06T05:22:43.577Z,12.91
2022-10-06T05:25:16.018Z,12.92
2022-10-06T05:27:46.161Z,12.92
2022-10-06T05:30:16.036Z,12.91
2022-10-06T05:32:50.585Z,12.91
2022-10-06T05:35:21.447Z,12.91
2022-10-06T05:37:51.172Z,12.92
2022-10-06T05:40:23.918Z,12.94
2022-10-06T05:42:53.668Z,12.94
2022-10-06T05:45:23.405Z,12.93
2022-10-06T05:47:53.254Z,12.93
2022-10-06T05:50:23.751Z,12.94
2022-10-06T05:52:53.470Z,12.94
2022-10-06T05:55:26.501Z,12.94
2022-10-06T05:57:57.747Z,12.94
2022-10-06T06:00:27.743Z,12.94
2022-10-06T06:02:57.562Z,12.95
2022-10-06T06:05:27.326Z,12.95
2022-10-06T06:07:57.073Z,12.97
2022-10-06T06:10:29.413Z,12.97
2022-10-06T06:12:59.182Z,13.00
2022-10-06T06:15:41.314Z,13.01
2022-10-06T06:18:11.073Z,13.04
2022-10-06T06:20:40.779Z,13.05
2022-10-06T06:23:10.528Z,13.04
2022-10-06T06:25:44.395Z,13.04
2022-10-06T06:28:14.205Z,13.03
2022-10-06T06:30:44.120Z,13.01
2022-10-06T06:33:13.876Z,13.01
2022-10-06T06:35:44.185Z,12.99
2022-10-06T06:38:14.191Z,12.99
2022-10-06T06:40:46.627Z,13.01
2022-10-06T06:43:16.325Z,13.02
2022-10-06T06:45:46.159Z,13.03
2022-10-06T06:48:18.435Z,13.05
2022-10-06T06:50:48.793Z,13.07
2022-10-06T06:53:18.522Z,13.07
2022-10-06T06:55:54.839Z,13.08
2022-10-06T06:58:25.098Z,13.10
2022-10-06T07:00:55.116Z,13.10
2022-10-06T07:03:55.636Z,13.12
2022-10-06T07:06:17.348Z,13.12
2022-10-06T07:08:49.632Z,13.14
2022-10-06T07:11:23.599Z,13.17
2022-10-06T07:13:55.736Z,13.17
2022-10-06T07:16:38.931Z,13.20
2022-10-06T07:19:24.787Z,13.25
2022-10-06T07:22:08.616Z,13.27
2022-10-06T07:24:50.765Z,13.31
2022-10-06T07:27:23.208Z,13.35
2022-10-06T07:29:56.014Z,13.38
2022-10-06T07:32:27.877Z,13.42
2022-10-06T07:34:58.433Z,13.44
2022-10-06T07:37:28.979Z,13.48
2022-10-06T07:39:59.062Z,13.51
2022-10-06T07:42:31.525Z,13.53
2022-10-06T07:45:13.675Z,13.59
2022-10-06T07:47:43.480Z,13.62
2022-10-06T07:50:13.306Z,13.66
2022-10-06T07:52:45.238Z,13.70
2022-10-06T07:55:17.861Z,13.73
2022-10-06T07:57:51.597Z,13.79
2022-10-06T08:00:23.299Z,13.84
2022-10-06T08:03:07.581Z,13.89
2022-10-06T08:05:41.941Z,13.97
2022-10-06T08:08:11.811Z,14.06
2022-10-06T08:10:41.820Z,14.12
2022-10-06T08:13:14.277Z,14.17
2022-10-06T08:15:44.113Z,14.27
2022-10-06T08:18:33.642Z,14.32
2022-10-06T08:21:03.776Z,14.35
2022-10-06T08:23:40.725Z,14.40
2022-10-06T08:26:11.054Z,14.45
2022-10-06T08:29:18.488Z,14.49
2022-10-06T08:31:38.630Z,14.51
2022-10-06T08:34:12.010Z,14.56
2022-10-06T08:36:56.958Z,14.62
2022-10-06T08:39:34.050Z,14.69
2022-10-06T08:42:04.529Z,14.81
2022-10-06T08:44:43.060Z,14.91
2022-10-06T08:47:19.191Z,14.97
2022-10-06T08:49:51.243Z,15.09
2022-10-06T08:52:34.530Z,15.18
2022-10-06T08:55:18.309Z,15.23
2022-10-06T08:58:13.539Z,15.23
2022-10-06T09:00:46.055Z,15.27
2022-10-06T09:03:23.214Z,15.32
2022-10-06T09:05:55.969Z,15.34
2022-10-06T09:08:41.002Z,15.36
2022-10-06T09:11:25.232Z,15.39
2022-10-06T09:14:00.123Z,15.41
2022-10-06T09:16:42.296Z,15.46
2022-10-06T09:19:17.781Z,15.50
2022-10-06T09:21:51.849Z,15.51
2022-10-06T09:24:32.888Z,15.53
2022-10-06T09:27:03.602Z,15.53
2022-10-06T09:29:33.987Z,15.56
2022-10-06T09:32:06.935Z,15.58
2022-10-06T09:34:42.306Z,15.59
2022-10-06T09:37:13.937Z,15.62
2022-10-06T09:39:45.349Z,15.66
2022-10-06T09:42:18.781Z,15.67
2022-10-06T09:45:01.502Z,15.70
2022-10-06T09:47:45.430Z,15.74
2022-10-06T09:50:22.020Z,15.80
2022-10-06T09:53:22.112Z,15.87
2022-10-06T09:55:55.456Z,15.91
2022-10-06T09:58:31.597Z,15.97
2022-10-06T10:01:03.971Z,16.05
2022-10-06T10:04:18.702Z,16.10
2022-10-06T10:06:43.587Z,16.09
2022-10-06T10:09:22.929Z,16.09
2022-10-06T10:12:33.878Z,16.08
2022-10-06T10:15:06.397Z,16.05
2022-10-06T10:17:42.162Z,16.04
2022-10-06T10:20:34.393Z,16.07
2022-10-06T10:23:08.273Z,16.07
2022-10-06T10:26:08.268Z,16.10
2022-10-06T10:29:12.400Z,16.11
2022-10-06T10:31:56.419Z,16.12
2022-10-06T10:34:45.154Z,16.11
2022-10-06T10:37:22.077Z,16.09
2022-10-06T10:39:57.745Z,16.10
2022-10-06T10:42:33.234Z,16.11
2022-10-06T10:45:04.577Z,16.18
2022-10-06T10:47:39.500Z,16.23
2022-10-06T10:50:22.539Z,16.29
2022-10-06T10:52:58.959Z,16.34
2022-10-06T10:55:32.699Z,16.39
2022-10-06T10:58:07.515Z,16.44
2022-10-06T11:00:44.314Z,16.51
2022-10-06T11:03:14.143Z,16.56
2022-10-06T11:06:07.436Z,16.56
2022-10-06T11:08:50.980Z,16.56
2022-10-06T11:11:30.007Z,16.53
2022-10-06T11:14:04.439Z,16.53
2022-10-06T11:16:44.454Z,16.57
2022-10-06T11:19:24.641Z,16.64
2022-10-06T11:22:01.969Z,16.70
2022-10-06T11:24:44.857Z,16.74
2022-10-06T11:27:26.686Z,16.76
2022-10-06T11:30:08.571Z,16.82
2022-10-06T11:32:50.201Z,16.84
2022-10-06T11:35:24.010Z,16.85
2022-10-06T11:38:01.094Z,16.85
2022-10-06T11:40:44.169Z,16.89
2022-10-06T11:43:23.229Z,16.92
2022-10-06T11:46:04.151Z,16.96
2022-10-06T11:48:35.471Z,16.91
2022-10-06T11:51:32.553Z,16.94
2022-10-06T11:54:02.574Z,16.91
2022-10-06T11:56:44.071Z,16.92
2022-10-06T11:59:31.483Z,16.91
2022-10-06T12:02:04.006Z,16.90
2022-10-06T12:04:33.847Z,16.88
2022-10-06T12:07:05.448Z,16.86
2022-10-06T12:09:52.332Z,16.87
2022-10-06T12:13:13.862Z,16.91
2022-10-06T12:19:16.988Z,16.90
2022-10-06T12:21:57.452Z,16.84
2022-10-06T12:24:41.501Z,16.86
2022-10-06T12:27:33.383Z,16.92
2022-10-06T12:30:09.372Z,16.99
2022-10-06T12:32:55.081Z,17.04
2022-10-06T12:35:33.038Z,17.09
2022-10-06T12:38:05.557Z,17.14
2022-10-06T12:40:55.720Z,17.20
2022-10-06T12:43:55.579Z,17.26
2022-10-06T12:46:49.531Z,17.31
2022-10-06T12:49:49.120Z,17.34
2022-10-06T12:52:35.467Z,17.33
2022-10-06T12:55:32.429Z,17.32
2022-10-06T12:58:02.410Z,17.28
2022-10-06T13:00:37.399Z,17.26
2022-10-06T13:03:18.238Z,17.23
2022-10-06T13:05:53.684Z,17.20
2022-10-06T13:08:29.193Z,17.20
2022-10-06T13:11:14.577Z,17.17
2022-10-06T13:13:51.179Z,17.14
2022-10-06T13:16:22.942Z,17.13
2022-10-06T13:18:58.133Z,17.17
2022-10-06T13:21:29.123Z,17.18
2022-10-06T13:23:59.676Z,17.22
2022-10-06T13:26:34.778Z,17.23
2022-10-06T13:29:05.455Z,17.21
2022-10-06T13:31:38.209Z,17.18
2022-10-06T13:34:14.809Z,17.17
2022-10-06T13:36:46.959Z,17.12
2022-10-06T13:39:18.847Z,17.11
2022-10-06T13:41:52.402Z,17.11
2022-10-06T13:44:35.941Z,17.12
2022-10-06T13:47:08.900Z,17.07
2022-10-06T13:49:49.188Z,17.04
2022-10-06T13:52:22.050Z,17.00
2022-10-06T13:54:56.012Z,16.99
2022-10-06T13:57:39.902Z,17.01
2022-10-06T14:00:20.212Z,17.01
2022-10-06T14:02:51.926Z,17.03
2022-10-06T14:05:33.382Z,17.04
2022-10-06T14:08:04.936Z,17.03
2022-10-06T14:10:41.462Z,17.03
2022-10-06T14:13:17.019Z,17.00
2022-10-06T14:15:50.462Z,16.96
2022-10-06T14:18:27.100Z,16.93
2022-10-06T14:21:00.223Z,16.91
2022-10-06T14:23:46.234Z,16.91
2022-10-06T14:26:17.525Z,16.91
2022-10-06T14:28:52.988Z,16.87
2022-10-06T14:31:23.746Z,16.87
2022-10-06T14:33:55.031Z,16.87
2022-10-06T14:36:29.234Z,16.89
2022-10-06T14:39:00.483Z,16.89
2022-10-06T14:41:32.912Z,16.90
2022-10-06T14:44:06.171Z,16.85
2022-10-06T14:46:36.755Z,16.83
2022-10-06T14:49:08.522Z,16.83
2022-10-06T14:51:44.473Z,16.83
2022-10-06T14:54:14.486Z,16.78
2022-10-06T14:56:44.928Z,16.77
2022-10-06T14:59:17.337Z,16.73
2022-10-06T15:01:47.918Z,16.71
2022-10-06T15:04:19.814Z,16.67
2022-10-06T15:07:04.592Z,16.65
2022-10-06T15:09:35.890Z,16.62
2022-10-06T15:12:06.450Z,16.58
2022-10-06T15:14:39.820Z,16.57
2022-10-06T15:17:09.851Z,16.57
2022-10-06T15:19:40.470Z,16.56
2022-10-06T15:22:12.783Z,16.55
2022-10-06T15:24:43.342Z,16.53
2022-10-06T15:27:25.465Z,16.51
2022-10-06T15:29:56.220Z,16.52
2022-10-06T15:32:26.056Z,16.51
2022-10-06T15:34:55.779Z,16.48
2022-10-06T15:37:28.166Z,16.45
2022-10-06T15:39:58.149Z,16.40
2022-10-06T15:42:28.035Z,16.36
2022-10-06T15:44:57.842Z,16.34
2022-10-06T15:47:28.128Z,16.32
2022-10-06T15:49:57.947Z,16.30
2022-10-06T15:52:34.114Z,16.30
2022-10-06T15:55:03.878Z,16.28
2022-10-06T15:57:33.707Z,16.25
2022-10-06T16:00:03.481Z,16.24
2022-10-06T16:02:35.830Z,16.21
2022-10-06T16:05:45.089Z,16.19
2022-10-06T16:08:17.495Z,16.16
2022-10-06T16:10:52.507Z,16.15
2022-10-06T16:13:22.376Z,16.12
2022-10-06T16:15:55.858Z,16.10
2022-10-06T16:18:25.892Z,16.07
2022-10-06T16:20:56.721Z,16.07
2022-10-06T16:23:29.104Z,16.05
2022-10-06T16:26:03.871Z,16.04
2022-10-06T16:28:33.956Z,16.01
2022-10-06T16:31:03.865Z,15.97
2022-10-06T16:33:33.630Z,15.93
2022-10-06T16:36:03.389Z,15.86
2022-10-06T16:38:35.718Z,15.81
2022-10-06T16:41:05.682Z,15.76
2022-10-06T16:43:37.964Z,15.74
2022-10-06T16:46:09.985Z,15.71
2022-10-06T16:48:41.384Z,15.69
2022-10-06T16:51:13.184Z,15.67
2022-10-06T16:53:46.743Z,15.63
2022-10-06T16:56:20.504Z,15.58
2022-10-06T16:58:53.495Z,15.54
2022-10-06T17:01:25.667Z,15.50
2022-10-06T17:04:00.755Z,15.46
2022-10-06T17:06:30.580Z,15.43
2022-10-06T17:09:03.159Z,15.40
2022-10-06T17:11:33.002Z,15.34
2022-10-06T17:14:02.732Z,15.27
2022-10-06T17:16:35.088Z,15.22
2022-10-06T17:19:05.411Z,15.18
2022-10-06T17:21:57.378Z,15.13
2022-10-06T17:24:28.955Z,15.10
2022-10-06T17:27:00.518Z,15.06
2022-10-06T17:29:30.473Z,15.02
2022-10-06T17:32:01.635Z,14.99
2022-10-06T17:34:33.161Z,14.93
2022-10-06T17:37:04.704Z,14.91
2022-10-06T17:39:37.076Z,14.89
2022-10-06T17:42:07.361Z,14.90
2022-10-06T17:44:37.057Z,14.87
2022-10-06T17:47:07.196Z,14.83
2022-10-06T17:49:37.260Z,14.80
2022-10-06T17:52:07.520Z,14.77
2022-10-06T17:54:41.602Z,14.74
2022-10-06T17:57:11.358Z,14.71
2022-10-06T17:59:41.070Z,14.68
2022-10-06T18:02:13.622Z,14.64
2022-10-06T18:04:43.390Z,14.60
2022-10-06T18:07:13.166Z,14.56
2022-10-06T18:10:05.912Z,14.53
2022-10-06T18:12:36.350Z,14.49
2022-10-06T18:15:06.191Z,14.47
2022-10-06T18:17:36.101Z,14.44
2022-10-06T18:20:06.509Z,14.41
2022-10-06T18:22:36.245Z,14.36
2022-10-06T18:25:10.002Z,14.33
2022-10-06T18:27:40.455Z,14.31
2022-10-06T18:30:12.186Z,14.27
2022-10-06T18:34:41.658Z,14.26
2022-10-06T18:38:21.276Z,14.21
2022-10-06T18:41:00.654Z,14.20
2022-10-06T18:43:30.862Z,14.17
2022-10-06T18:46:17.111Z,14.17
2022-10-06T18:48:58.979Z,14.14
2022-10-06T18:51:32.573Z,14.13
2022-10-06T18:54:05.462Z,14.13
2022-10-06T18:56:39.335Z,14.12
2022-10-06T18:59:12.395Z,14.12
2022-10-06T19:01:44.686Z,14.13
2022-10-06T19:04:16.048Z,14.13
2022-10-06T19:06:49.392Z,14.13
2022-10-06T19:09:21.046Z,14.13
2022-10-06T19:11:56.694Z,14.14
2022-10-06T19:14:29.909Z,14.13
2022-10-06T19:17:02.277Z,14.12
2022-10-06T19:19:34.102Z,14.10
2022-10-06T19:22:06.197Z,14.09
2022-10-06T19:24:38.635Z,14.08
2022-10-06T19:27:15.234Z,14.05
2022-10-06T19:29:47.033Z,14.02
2022-10-06T19:32:19.313Z,13.99
2022-10-06T19:34:49.756Z,13.94
2022-10-06T19:37:19.619Z,13.92
2022-10-06T19:39:50.589Z,13.89
2022-10-06T19:42:35.860Z,13.87
2022-10-06T19:45:06.558Z,13.84
2022-10-06T19:47:36.341Z,13.81
2022-10-06T19:50:12.084Z,13.80
2022-10-06T19:52:42.152Z,13.76
2022-10-06T19:55:12.104Z,13.75
2022-10-06T19:57:44.797Z,13.73
2022-10-06T20:00:16.329Z,13.71
2022-10-06T20:02:47.638Z,13.69
2022-10-06T20:05:19.265Z,13.68
2022-10-06T20:07:50.104Z,13.65
2022-10-06T20:10:20.054Z,13.63
2022-10-06T20:12:52.669Z,13.63
2022-10-06T20:15:22.732Z,13.60
2022-10-06T20:17:52.416Z,13.59
2022-10-06T20:20:22.188Z,13.56
2022-10-06T20:22:54.045Z,13.53
2022-10-06T20:25:23.820Z,13.53
2022-10-06T20:27:56.237Z,13.51
2022-10-06T20:30:26.002Z,13.50
2022-10-06T20:32:55.785Z,13.48
2022-10-06T20:35:25.555Z,13.46
2022-10-06T20:37:55.289Z,13.41
2022-10-06T20:40:37.410Z,13.37
2022-10-06T20:43:09.812Z,13.36
2022-10-06T20:45:39.562Z,13.32
2022-10-06T20:48:09.840Z,13.31
2022-10-06T20:50:39.562Z,13.29
2022-10-06T20:53:09.769Z,13.27
2022-10-06T20:55:39.823Z,13.25
2022-10-06T20:58:12.212Z,13.23
2022-10-06T21:00:42.094Z,13.21
2022-10-06T21:03:12.000Z,13.19
2022-10-06T21:05:42.065Z,13.18
2022-10-06T21:08:12.115Z,13.16
2022-10-06T21:10:41.871Z,13.14
2022-10-06T21:13:14.466Z,13.14
2022-10-06T21:15:48.148Z,13.11
2022-10-06T21:18:18.025Z,13.09
2022-10-06T21:20:57.001Z,13.07
2022-10-06T21:23:26.886Z,13.05
2022-10-06T21:25:56.768Z,13.05
2022-10-06T21:28:29.228Z,13.05
2022-10-06T21:31:04.521Z,13.04
2022-10-06T21:33:41.546Z,13.03
2022-10-06T21:36:15.621Z,13.03
2022-10-06T21:38:47.943Z,13.02
2022-10-06T21:41:37.251Z,13.01
2022-10-06T21:44:11.207Z,13.01
2022-10-06T21:46:42.565Z,12.99
2022-10-06T21:49:14.189Z,12.97
2022-10-06T21:51:45.801Z,12.96
2022-10-06T21:54:16.554Z,12.95
2022-10-06T21:56:46.743Z,12.93
2022-10-06T21:59:19.207Z,12.93
2022-10-06T22:01:50.476Z,12.92
2022-10-06T22:04:20.669Z,12.90
2022-10-06T22:06:51.856Z,12.91
2022-10-06T22:09:23.591Z,12.89
2022-10-06T22:11:53.389Z,12.88
2022-10-06T22:14:25.796Z,12.88
2022-10-06T22:16:55.517Z,12.86
2022-10-06T22:19:25.313Z,12.86
2022-10-06T22:21:55.056Z,12.86
2022-10-06T22:24:24.911Z,12.85
2022-10-06T22:26:54.690Z,12.85
2022-10-06T22:29:27.154Z,12.84
2022-10-06T22:31:58.722Z,12.83
2022-10-06T22:34:29.908Z,12.82
2022-10-06T22:37:00.791Z,12.81
2022-10-06T22:39:30.538Z,12.79
2022-10-06T22:42:00.251Z,12.81
2022-10-06T22:44:32.624Z,12.80
2022-10-06T22:47:02.413Z,12.80
2022-10-06T22:49:32.317Z,12.77
2022-10-06T22:52:02.087Z,12.77
2022-10-06T22:54:32.454Z,12.76
2022-10-06T22:57:02.188Z,12.73
2022-10-06T22:59:34.518Z,12.71
2022-10-06T23:02:04.264Z,12.70
2022-10-06T23:04:34.064Z,12.69
2022-10-06T23:07:03.862Z,12.66
2022-10-06T23:09:33.653Z,12.66
2022-10-06T23:12:03.412Z,12.63
2022-10-06T23:14:35.736Z,12.61
2022-10-06T23:17:05.456Z,12.59
2022-10-06T23:19:35.199Z,12.57
2022-10-06T23:22:05.144Z,12.54
2022-10-06T23:24:34.889Z,12.55
2022-10-06T23:27:07.267Z,12.54
2022-10-06T23:29:39.615Z,12.51
2022-10-06T23:32:09.345Z,12.50
2022-10-06T23:34:39.110Z,12.49
2022-10-06T23:37:08.834Z,12.48
2022-10-06T23:39:38.649Z,12.47
2022-10-06T23:42:09.791Z,12.46
2022-10-06T23:44:42.735Z,12.45
2022-10-06T23:47:12.469Z,12.44
2022-10-06T23:49:43.716Z,12.43
2022-10-06T23:52:13.482Z,12.42
2022-10-06T23:54:43.287Z,12.41
2022-10-06T23:57:13.008Z,12.39
2022-10-06T23:59:45.343Z,12.38
